sensor_id;sensor_type;location;lat;lon;timestamp;temperature;humidity
13850;DHT22;6995;52.618;13.488;2022-11-15T00:01:47;5.00;1.00
13850;DHT22;6995;52.618;13.488;2022-11-15T00:04:13;5.00;1.00
13850;DHT22;6995;52.618;13.488;2022-11-15T00:06:38;5.00;1.00
13850;DHT22;6995;52.618;13.488;2022-11-15T00:09:04;5.00;1.00
13850;DHT22;6995;52.618;13.488;2022-11-15T00:11:30;5.00;1.00
13850;DHT22;6995;52.618;13.488;2022-11-15T00:13:56;5.00;1.00
13850;DHT22;6995;52.618;13.488;2022-11-15T00:16:23;5.00;1.00
13850;DHT22;6995;52.618;13.488;2022-11-15T00:18:49;5.00;1.00
13850;DHT22;6995;52.618;13.488;2022-11-15T00:21:16;5.00;1.00
13850;DHT22;6995;52.618;13.488;2022-11-15T00:23:42;5.00;1.00
13850;DHT22;6995;52.618;13.488;2022-11-15T00:26:11;4.90;1.00
13850;DHT22;6995;52.618;13.488;2022-11-15T00:28:38;5.00;1.00
13850;DHT22;6995;52.618;13.488;2022-11-15T00:31:05;4.90;1.00
13850;DHT22;6995;52.618;13.488;2022-11-15T00:33:31;4.90;1.00
13850;DHT22;6995;52.618;13.488;2022-11-15T00:36:08;5.00;1.00
13850;DHT22;6995;52.618;13.488;2022-11-15T00:38:36;5.00;1.00
13850;DHT22;6995;52.618;13.488;2022-11-15T00:41:03;4.90;1.00
13850;DHT22;6995;52.618;13.488;2022-11-15T00:43:29;4.90;1.00
13850;DHT22;6995;52.618;13.488;2022-11-15T00:45:55;4.90;1.00
13850;DHT22;6995;52.618;13.488;2022-11-15T00:48:21;4.90;1.00
13850;DHT22;6995;52.618;13.488;2022-11-15T00:50:47;4.80;1.00
13850;DHT22;6995;52.618;13.488;2022-11-15T00:53:13;4.90;1.00
13850;DHT22;6995;52.618;13.488;2022-11-15T00:55:39;4.80;1.00
13850;DHT22;6995;52.618;13.488;2022-11-15T00:58:04;4.80;1.00
13850;DHT22;6995;52.618;13.488;2022-11-15T01:00:30;4.80;1.00
13850;DHT22;6995;52.618;13.488;2022-11-15T01:02:56;4.80;1.00
13850;DHT22;6995;52.618;13.488;2022-11-15T01:05:22;4.80;1.00
13850;DHT22;6995;52.618;13.488;2022-11-15T01:07:51;4.80;1.00
13850;DHT22;6995;52.618;13.488;2022-11-15T01:10:17;4.70;1.00
13850;DHT22;6995;52.618;13.488;2022-11-15T01:12:43;4.70;1.00
13850;DHT22;6995;52.618;13.488;2022-11-15T01:15:08;4.70;1.00
13850;DHT22;6995;52.618;13.488;2022-11-15T01:17:34;4.80;1.00
13850;DHT22;6995;52.618;13.488;2022-11-15T01:20:00;4.70;1.00
13850;DHT22;6995;52.618;13.488;2022-11-15T01:22:25;4.70;1.00
13850;DHT22;6995;52.618;13.488;2022-11-15T01:24:51;4.70;1.00
13850;DHT22;6995;52.618;13.488;2022-11-15T01:27:17;4.70;1.00
13850;DHT22;6995;52.618;13.488;2022-11-15T01:29:48;4.70;1.00
13850;DHT22;6995;52.618;13.488;2022-11-15T01:32:14;4.70;1.00
13850;DHT22;6995;52.618;13.488;2022-11-15T01:34:39;4.70;1.00
13850;DHT22;6995;52.618;13.488;2022-11-15T01:37:05;4.70;1.00
13850;DHT22;6995;52.618;13.488;2022-11-15T01:39:31;4.70;1.00
13850;DHT22;6995;52.618;13.488;2022-11-15T01:41:56;4.60;1.00
13850;DHT22;6995;52.618;13.488;2022-11-15T01:47:03;4.60;1.00
13850;DHT22;6995;52.618;13.488;2022-11-15T01:49:32;4.60;1.00
13850;DHT22;6995;52.618;13.488;2022-11-15T01:52:01;4.60;1.00
13850;DHT22;6995;52.618;13.488;2022-11-15T01:54:27;4.60;1.00
13850;DHT22;6995;52.618;13.488;2022-11-15T01:56:57;4.50;1.00
13850;DHT22;6995;52.618;13.488;2022-11-15T01:59:24;4.50;1.00
13850;DHT22;6995;52.618;13.488;2022-11-15T02:01:51;4.50;1.00
13850;DHT22;6995;52.618;13.488;2022-11-15T02:04:20;4.50;1.00
13850;DHT22;6995;52.618;13.488;2022-11-15T02:06:48;4.50;1.00
13850;DHT22;6995;52.618;13.488;2022-11-15T02:09:15;4.50;1.00
13850;DHT22;6995;52.618;13.488;2022-11-15T02:11:42;4.50;1.00
13850;DHT22;6995;52.618;13.488;2022-11-15T02:14:09;4.50;1.00
13850;DHT22;6995;52.618;13.488;2022-11-15T02:33:08;4.50;1.00
13850;DHT22;6995;52.618;13.488;2022-11-15T02:35:43;4.50;1.00
13850;DHT22;6995;52.618;13.488;2022-11-15T02:38:26;4.50;1.00
13850;DHT22;6995;52.618;13.488;2022-11-15T02:41:02;4.50;1.00
13850;DHT22;6995;52.618;13.488;2022-11-15T02:44:17;4.50;1.00
13850;DHT22;6995;52.618;13.488;2022-11-15T02:46:41;4.50;1.00
13850;DHT22;6995;52.618;13.488;2022-11-15T02:49:28;4.50;1.00
13850;DHT22;6995;52.618;13.488;2022-11-15T02:51:55;4.40;1.00
13850;DHT22;6995;52.618;13.488;2022-11-15T02:54:39;4.40;1.00
13850;DHT22;6995;52.618;13.488;2022-11-15T02:57:10;4.40;1.00
13850;DHT22;6995;52.618;13.488;2022-11-15T03:02:25;4.30;1.00
13850;DHT22;6995;52.618;13.488;2022-11-15T03:13:24;4.40;1.00
13850;DHT22;6995;52.618;13.488;2022-11-15T03:16:03;4.40;1.00
13850;DHT22;6995;52.618;13.488;2022-11-15T03:18:37;4.40;1.00
13850;DHT22;6995;52.618;13.488;2022-11-15T03:21:06;4.40;1.00
13850;DHT22;6995;52.618;13.488;2022-11-15T03:23:33;4.40;1.00
13850;DHT22;6995;52.618;13.488;2022-11-15T03:26:00;4.40;1.00
13850;DHT22;6995;52.618;13.488;2022-11-15T03:28:37;4.40;1.00
13850;DHT22;6995;52.618;13.488;2022-11-15T03:31:04;4.40;1.00
13850;DHT22;6995;52.618;13.488;2022-11-15T03:33:53;4.40;1.00
13850;DHT22;6995;52.618;13.488;2022-11-15T03:36:22;4.40;1.00
13850;DHT22;6995;52.618;13.488;2022-11-15T03:38:48;4.40;1.00
13850;DHT22;6995;52.618;13.488;2022-11-15T03:41:23;4.40;1.00
13850;DHT22;6995;52.618;13.488;2022-11-15T03:44:00;4.30;1.00
13850;DHT22;6995;52.618;13.488;2022-11-15T03:46:36;4.30;1.00
13850;DHT22;6995;52.618;13.488;2022-11-15T03:49:15;4.30;1.00
13850;DHT22;6995;52.618;13.488;2022-11-15T03:51:42;4.30;1.00
13850;DHT22;6995;52.618;13.488;2022-11-15T03:54:08;4.30;1.00
13850;DHT22;6995;52.618;13.488;2022-11-15T03:56:34;4.30;1.00
13850;DHT22;6995;52.618;13.488;2022-11-15T03:58:59;4.30;1.00
13850;DHT22;6995;52.618;13.488;2022-11-15T04:01:25;4.30;1.00
13850;DHT22;6995;52.618;13.488;2022-11-15T04:03:51;4.40;1.00
13850;DHT22;6995;52.618;13.488;2022-11-15T04:06:16;4.40;1.00
13850;DHT22;6995;52.618;13.488;2022-11-15T04:08:42;4.40;1.00
13850;DHT22;6995;52.618;13.488;2022-11-15T04:11:10;4.40;1.00
13850;DHT22;6995;52.618;13.488;2022-11-15T04:13:35;4.40;1.00
13850;DHT22;6995;52.618;13.488;2022-11-15T04:16:01;4.30;1.00
13850;DHT22;6995;52.618;13.488;2022-11-15T04:18:27;4.30;1.00
13850;DHT22;6995;52.618;13.488;2022-11-15T04:20:52;4.30;1.00
13850;DHT22;6995;52.618;13.488;2022-11-15T04:23:36;4.30;1.00
13850;DHT22;6995;52.618;13.488;2022-11-15T04:26:37;4.30;1.00
13850;DHT22;6995;52.618;13.488;2022-11-15T04:29:03;4.30;1.00
13850;DHT22;6995;52.618;13.488;2022-11-15T04:31:47;4.30;1.00
13850;DHT22;6995;52.618;13.488;2022-11-15T04:34:12;4.30;1.00
13850;DHT22;6995;52.618;13.488;2022-11-15T04:36:38;4.30;1.00
13850;DHT22;6995;52.618;13.488;2022-11-15T04:39:22;4.30;1.00
13850;DHT22;6995;52.618;13.488;2022-11-15T04:41:48;4.30;1.00
13850;DHT22;6995;52.618;13.488;2022-11-15T04:44:13;4.30;1.00
13850;DHT22;6995;52.618;13.488;2022-11-15T04:46:39;4.40;1.00
13850;DHT22;6995;52.618;13.488;2022-11-15T04:49:05;4.30;1.00
13850;DHT22;6995;52.618;13.488;2022-11-15T04:51:30;4.40;1.00
13850;DHT22;6995;52.618;13.488;2022-11-15T04:53:56;4.40;1.00
13850;DHT22;6995;52.618;13.488;2022-11-15T04:56:21;4.30;1.00
13850;DHT22;6995;52.618;13.488;2022-11-15T04:58:50;4.30;1.00
13850;DHT22;6995;52.618;13.488;2022-11-15T05:01:16;4.30;1.00
13850;DHT22;6995;52.618;13.488;2022-11-15T05:03:43;4.30;1.00
13850;DHT22;6995;52.618;13.488;2022-11-15T05:06:27;4.30;1.00
13850;DHT22;6995;52.618;13.488;2022-11-15T05:08:53;4.30;1.00
13850;DHT22;6995;52.618;13.488;2022-11-15T05:11:19;4.30;1.00
13850;DHT22;6995;52.618;13.488;2022-11-15T05:13:46;4.30;1.00
13850;DHT22;6995;52.618;13.488;2022-11-15T05:16:11;4.30;1.00
13850;DHT22;6995;52.618;13.488;2022-11-15T05:18:37;4.30;1.00
13850;DHT22;6995;52.618;13.488;2022-11-15T05:21:14;4.30;1.00
13850;DHT22;6995;52.618;13.488;2022-11-15T05:23:40;4.30;1.00
13850;DHT22;6995;52.618;13.488;2022-11-15T05:26:07;4.20;1.00
13850;DHT22;6995;52.618;13.488;2022-11-15T05:28:36;4.20;1.00
13850;DHT22;6995;52.618;13.488;2022-11-15T05:31:03;4.20;1.00
13850;DHT22;6995;52.618;13.488;2022-11-15T05:33:29;4.20;1.00
13850;DHT22;6995;52.618;13.488;2022-11-15T05:36:00;4.20;1.00
13850;DHT22;6995;52.618;13.488;2022-11-15T05:38:26;4.30;1.00
13850;DHT22;6995;52.618;13.488;2022-11-15T05:40:52;4.30;1.00
13850;DHT22;6995;52.618;13.488;2022-11-15T05:43:18;4.20;1.00
13850;DHT22;6995;52.618;13.488;2022-11-15T05:45:43;4.20;1.00
13850;DHT22;6995;52.618;13.488;2022-11-15T05:48:09;4.30;1.00
13850;DHT22;6995;52.618;13.488;2022-11-15T05:50:36;4.30;1.00
13850;DHT22;6995;52.618;13.488;2022-11-15T05:53:04;4.30;1.00
13850;DHT22;6995;52.618;13.488;2022-11-15T05:55:31;4.30;1.00
13850;DHT22;6995;52.618;13.488;2022-11-15T05:57:57;4.20;1.00
13850;DHT22;6995;52.618;13.488;2022-11-15T06:00:23;4.20;1.00
13850;DHT22;6995;52.618;13.488;2022-11-15T06:02:49;4.20;1.00
13850;DHT22;6995;52.618;13.488;2022-11-15T06:05:14;4.20;1.00
13850;DHT22;6995;52.618;13.488;2022-11-15T06:07:40;4.30;1.00
13850;DHT22;6995;52.618;13.488;2022-11-15T06:10:06;4.30;1.00
13850;DHT22;6995;52.618;13.488;2022-11-15T06:16:10;4.30;1.00
13850;DHT22;6995;52.618;13.488;2022-11-15T06:18:36;4.30;1.00
13850;DHT22;6995;52.618;13.488;2022-11-15T06:21:03;4.30;1.00
13850;DHT22;6995;52.618;13.488;2022-11-15T06:23:32;4.30;1.00
13850;DHT22;6995;52.618;13.488;2022-11-15T06:25:58;4.30;1.00
13850;DHT22;6995;52.618;13.488;2022-11-15T06:28:27;4.30;1.00
13850;DHT22;6995;52.618;13.488;2022-11-15T06:30:53;4.30;1.00
13850;DHT22;6995;52.618;13.488;2022-11-15T06:33:18;4.30;1.00
13850;DHT22;6995;52.618;13.488;2022-11-15T06:35:44;4.30;1.00
13850;DHT22;6995;52.618;13.488;2022-11-15T06:38:10;4.30;1.00
13850;DHT22;6995;52.618;13.488;2022-11-15T06:40:37;4.30;1.00
13850;DHT22;6995;52.618;13.488;2022-11-15T06:43:04;4.30;1.00
13850;DHT22;6995;52.618;13.488;2022-11-15T06:45:30;4.30;1.00
13850;DHT22;6995;52.618;13.488;2022-11-15T06:47:56;4.30;1.00
13850;DHT22;6995;52.618;13.488;2022-11-15T06:50:22;4.30;1.00
13850;DHT22;6995;52.618;13.488;2022-11-15T06:52:48;4.30;1.00
13850;DHT22;6995;52.618;13.488;2022-11-15T06:55:14;4.30;1.00
13850;DHT22;6995;52.618;13.488;2022-11-15T06:58:00;4.30;1.00
13850;DHT22;6995;52.618;13.488;2022-11-15T07:00:25;4.40;1.00
13850;DHT22;6995;52.618;13.488;2022-11-15T07:02:51;4.40;1.00
13850;DHT22;6995;52.618;13.488;2022-11-15T07:05:17;4.50;1.00
13850;DHT22;6995;52.618;13.488;2022-11-15T07:07:43;4.50;1.00
13850;DHT22;6995;52.618;13.488;2022-11-15T07:10:09;4.50;1.00
13850;DHT22;6995;52.618;13.488;2022-11-15T07:12:35;4.60;1.00
13850;DHT22;6995;52.618;13.488;2022-11-15T07:15:00;4.60;1.00
13850;DHT22;6995;52.618;13.488;2022-11-15T07:17:26;4.60;1.00
13850;DHT22;6995;52.618;13.488;2022-11-15T07:19:52;4.70;1.00
13850;DHT22;6995;52.618;13.488;2022-11-15T07:22:17;4.70;1.00
13850;DHT22;6995;52.618;13.488;2022-11-15T07:24:43;4.80;1.00
13850;DHT22;6995;52.618;13.488;2022-11-15T07:27:09;4.80;1.00
13850;DHT22;6995;52.618;13.488;2022-11-15T07:29:34;4.90;1.00
13850;DHT22;6995;52.618;13.488;2022-11-15T07:32:00;5.00;1.00
13850;DHT22;6995;52.618;13.488;2022-11-15T07:34:26;5.10;1.00
13850;DHT22;6995;52.618;13.488;2022-11-15T07:36:51;5.10;1.00
13850;DHT22;6995;52.618;13.488;2022-11-15T07:39:17;5.10;1.00
13850;DHT22;6995;52.618;13.488;2022-11-15T07:41:42;5.20;1.00
13850;DHT22;6995;52.618;13.488;2022-11-15T07:44:08;5.30;1.00
13850;DHT22;6995;52.618;13.488;2022-11-15T07:46:34;5.40;1.00
13850;DHT22;6995;52.618;13.488;2022-11-15T07:49:00;5.50;1.00
13850;DHT22;6995;52.618;13.488;2022-11-15T07:51:26;5.60;1.00
13850;DHT22;6995;52.618;13.488;2022-11-15T07:53:51;5.60;1.00
13850;DHT22;6995;52.618;13.488;2022-11-15T07:56:17;5.80;1.00
13850;DHT22;6995;52.618;13.488;2022-11-15T07:58:45;5.90;1.00
13850;DHT22;6995;52.618;13.488;2022-11-15T08:01:11;5.90;1.00
13850;DHT22;6995;52.618;13.488;2022-11-15T08:03:37;6.00;1.00
13850;DHT22;6995;52.618;13.488;2022-11-15T08:06:03;6.00;1.00
13850;DHT22;6995;52.618;13.488;2022-11-15T08:08:29;6.00;1.00
13850;DHT22;6995;52.618;13.488;2022-11-15T08:10:57;6.00;1.00
13850;DHT22;6995;52.618;13.488;2022-11-15T08:13:23;6.10;1.00
13850;DHT22;6995;52.618;13.488;2022-11-15T08:15:49;6.20;1.00
13850;DHT22;6995;52.618;13.488;2022-11-15T08:18:15;6.30;1.00
13850;DHT22;6995;52.618;13.488;2022-11-15T08:20:42;6.40;1.00
13850;DHT22;6995;52.618;13.488;2022-11-15T08:23:10;6.40;1.00
13850;DHT22;6995;52.618;13.488;2022-11-15T08:25:37;6.50;1.00
13850;DHT22;6995;52.618;13.488;2022-11-15T08:28:05;6.60;1.00
13850;DHT22;6995;52.618;13.488;2022-11-15T08:30:35;6.70;1.00
13850;DHT22;6995;52.618;13.488;2022-11-15T08:33:01;6.80;1.00
13850;DHT22;6995;52.618;13.488;2022-11-15T08:35:28;6.80;1.00
13850;DHT22;6995;52.618;13.488;2022-11-15T08:37:54;6.90;1.00
13850;DHT22;6995;52.618;13.488;2022-11-15T08:40:20;7.00;1.00
13850;DHT22;6995;52.618;13.488;2022-11-15T08:42:46;7.00;1.00
13850;DHT22;6995;52.618;13.488;2022-11-15T08:45:12;7.00;1.00
13850;DHT22;6995;52.618;13.488;2022-11-15T08:47:38;7.00;1.00
13850;DHT22;6995;52.618;13.488;2022-11-15T08:50:04;7.10;1.00
13850;DHT22;6995;52.618;13.488;2022-11-15T08:52:30;7.20;1.00
13850;DHT22;6995;52.618;13.488;2022-11-15T08:54:57;7.30;1.00
13850;DHT22;6995;52.618;13.488;2022-11-15T08:57:22;7.40;1.00
13850;DHT22;6995;52.618;13.488;2022-11-15T08:59:48;7.50;1.00
13850;DHT22;6995;52.618;13.488;2022-11-15T09:02:14;7.60;1.00
13850;DHT22;6995;52.618;13.488;2022-11-15T09:04:41;7.60;1.00
13850;DHT22;6995;52.618;13.488;2022-11-15T09:07:08;7.70;1.00
13850;DHT22;6995;52.618;13.488;2022-11-15T09:09:34;7.70;1.00
13850;DHT22;6995;52.618;13.488;2022-11-15T09:12:00;7.80;1.00
13850;DHT22;6995;52.618;13.488;2022-11-15T09:14:26;7.80;1.00
13850;DHT22;6995;52.618;13.488;2022-11-15T09:16:51;7.90;1.00
13850;DHT22;6995;52.618;13.488;2022-11-15T09:19:17;7.90;1.00
13850;DHT22;6995;52.618;13.488;2022-11-15T09:21:42;8.10;1.00
13850;DHT22;6995;52.618;13.488;2022-11-15T09:24:08;8.20;1.00
13850;DHT22;6995;52.618;13.488;2022-11-15T09:26:34;8.40;1.00
13850;DHT22;6995;52.618;13.488;2022-11-15T09:29:00;8.50;1.00
13850;DHT22;6995;52.618;13.488;2022-11-15T09:31:26;8.50;1.00
13850;DHT22;6995;52.618;13.488;2022-11-15T09:33:52;8.60;1.00
13850;DHT22;6995;52.618;13.488;2022-11-15T09:36:18;8.70;1.00
13850;DHT22;6995;52.618;13.488;2022-11-15T09:38:44;8.80;1.00
13850;DHT22;6995;52.618;13.488;2022-11-15T09:48:53;9.20;1.00
13850;DHT22;6995;52.618;13.488;2022-11-15T09:51:32;9.30;1.00
13850;DHT22;6995;52.618;13.488;2022-11-15T09:54:01;9.40;1.00
13850;DHT22;6995;52.618;13.488;2022-11-15T09:56:31;9.50;1.00
13850;DHT22;6995;52.618;13.488;2022-11-15T10:04:51;9.80;1.00
13850;DHT22;6995;52.618;13.488;2022-11-15T10:12:55;10.00;99.90
13850;DHT22;6995;52.618;13.488;2022-11-15T10:15:21;10.00;99.90
13850;DHT22;6995;52.618;13.488;2022-11-15T10:18:18;10.10;99.90
13850;DHT22;6995;52.618;13.488;2022-11-15T10:20:48;10.20;99.90
13850;DHT22;6995;52.618;13.488;2022-11-15T10:23:17;10.30;99.90
13850;DHT22;6995;52.618;13.488;2022-11-15T10:25:44;10.40;99.90
13850;DHT22;6995;52.618;13.488;2022-11-15T10:28:36;10.50;99.90
13850;DHT22;6995;52.618;13.488;2022-11-15T10:31:02;10.50;99.90
13850;DHT22;6995;52.618;13.488;2022-11-15T10:33:32;10.50;99.90
13850;DHT22;6995;52.618;13.488;2022-11-15T10:41:30;10.70;99.90
13850;DHT22;6995;52.618;13.488;2022-11-15T10:49:19;10.90;99.90
13850;DHT22;6995;52.618;13.488;2022-11-15T10:52:28;10.90;99.90
13850;DHT22;6995;52.618;13.488;2022-11-15T10:54:51;11.00;99.90
13850;DHT22;6995;52.618;13.488;2022-11-15T10:57:31;11.10;99.90
13850;DHT22;6995;52.618;13.488;2022-11-15T11:00:02;11.20;99.90
13850;DHT22;6995;52.618;13.488;2022-11-15T11:05:00;11.10;99.90
13850;DHT22;6995;52.618;13.488;2022-11-15T11:07:29;11.10;99.90
13850;DHT22;6995;52.618;13.488;2022-11-15T11:12:39;11.30;99.90
13850;DHT22;6995;52.618;13.488;2022-11-15T11:15:11;11.40;99.90
13850;DHT22;6995;52.618;13.488;2022-11-15T11:20:40;11.50;99.90
13850;DHT22;6995;52.618;13.488;2022-11-15T11:31:25;11.70;99.90
13850;DHT22;6995;52.618;13.488;2022-11-15T11:34:16;11.70;99.90
13850;DHT22;6995;52.618;13.488;2022-11-15T11:42:16;12.10;99.90
13850;DHT22;6995;52.618;13.488;2022-11-15T11:47:43;12.20;99.90
13850;DHT22;6995;52.618;13.488;2022-11-15T11:50:18;12.30;99.90
13850;DHT22;6995;52.618;13.488;2022-11-15T11:53:11;12.40;99.90
13850;DHT22;6995;52.618;13.488;2022-11-15T11:55:47;12.50;99.90
13850;DHT22;6995;52.618;13.488;2022-11-15T12:01:23;12.60;99.90
13850;DHT22;6995;52.618;13.488;2022-11-15T12:04:09;12.60;99.90
13850;DHT22;6995;52.618;13.488;2022-11-15T12:06:53;12.70;99.90
13850;DHT22;6995;52.618;13.488;2022-11-15T12:14:46;13.10;99.90
13850;DHT22;6995;52.618;13.488;2022-11-15T12:17:13;13.10;99.90
13850;DHT22;6995;52.618;13.488;2022-11-15T12:19:40;13.20;99.90
13850;DHT22;6995;52.618;13.488;2022-11-15T12:24:43;13.30;99.90
13850;DHT22;6995;52.618;13.488;2022-11-15T12:29:42;13.50;99.90
13850;DHT22;6995;52.618;13.488;2022-11-15T12:32:38;13.60;99.90
13850;DHT22;6995;52.618;13.488;2022-11-15T12:35:20;13.70;99.90
13850;DHT22;6995;52.618;13.488;2022-11-15T12:38:08;13.80;99.90
13850;DHT22;6995;52.618;13.488;2022-11-15T12:40:37;13.90;99.90
13850;DHT22;6995;52.618;13.488;2022-11-15T12:45:41;14.40;99.90
13850;DHT22;6995;52.618;13.488;2022-11-15T12:53:33;15.40;99.90
13850;DHT22;6995;52.618;13.488;2022-11-15T12:58:58;16.00;99.90
13850;DHT22;6995;52.618;13.488;2022-11-15T13:06:51;16.60;99.90
13850;DHT22;6995;52.618;13.488;2022-11-15T13:23:01;16.80;99.90
13850;DHT22;6995;52.618;13.488;2022-11-15T13:31:00;17.40;99.90
13850;DHT22;6995;52.618;13.488;2022-11-15T13:33:36;17.50;99.90
13850;DHT22;6995;52.618;13.488;2022-11-15T13:36:11;17.60;99.90
13850;DHT22;6995;52.618;13.488;2022-11-15T13:38:40;17.70;99.90
13850;DHT22;6995;52.618;13.488;2022-11-15T13:41:33;17.80;99.90
13850;DHT22;6995;52.618;13.488;2022-11-15T13:44:00;17.80;99.90
13850;DHT22;6995;52.618;13.488;2022-11-15T13:46:28;17.70;99.90
13850;DHT22;6995;52.618;13.488;2022-11-15T13:48:58;17.60;99.90
13850;DHT22;6995;52.618;13.488;2022-11-15T13:56:47;17.30;99.90
13850;DHT22;6995;52.618;13.488;2022-11-15T13:59:24;17.30;99.90
13850;DHT22;6995;52.618;13.488;2022-11-15T14:01:52;16.90;99.90
13850;DHT22;6995;52.618;13.488;2022-11-15T14:04:20;16.70;99.90
13850;DHT22;6995;52.618;13.488;2022-11-15T14:06:54;16.40;99.90
13850;DHT22;6995;52.618;13.488;2022-11-15T14:09:31;15.90;99.90
13850;DHT22;6995;52.618;13.488;2022-11-15T14:12:01;15.50;99.90
13850;DHT22;6995;52.618;13.488;2022-11-15T14:14:28;15.20;99.90
13850;DHT22;6995;52.618;13.488;2022-11-15T14:16:59;14.70;99.90
13850;DHT22;6995;52.618;13.488;2022-11-15T14:22:28;14.10;99.90
13850;DHT22;6995;52.618;13.488;2022-11-15T14:27:32;13.90;99.90
13850;DHT22;6995;52.618;13.488;2022-11-15T14:30:00;13.70;99.90
13850;DHT22;6995;52.618;13.488;2022-11-15T14:32:28;13.60;99.90
13850;DHT22;6995;52.618;13.488;2022-11-15T14:34:59;13.40;99.90
13850;DHT22;6995;52.618;13.488;2022-11-15T14:37:27;13.30;99.90
13850;DHT22;6995;52.618;13.488;2022-11-15T14:39:54;13.00;99.90
13850;DHT22;6995;52.618;13.488;2022-11-15T14:42:21;12.80;99.90
13850;DHT22;6995;52.618;13.488;2022-11-15T14:44:47;12.60;99.90
13850;DHT22;6995;52.618;13.488;2022-11-15T14:47:13;12.40;99.90
13850;DHT22;6995;52.618;13.488;2022-11-15T14:49:39;12.20;99.90
13850;DHT22;6995;52.618;13.488;2022-11-15T14:54:50;11.80;99.90
13850;DHT22;6995;52.618;13.488;2022-11-15T14:57:16;11.60;99.90
13850;DHT22;6995;52.618;13.488;2022-11-15T14:59:41;11.50;99.90
13850;DHT22;6995;52.618;13.488;2022-11-15T15:02:27;11.40;99.90
13850;DHT22;6995;52.618;13.488;2022-11-15T15:04:53;11.30;99.90
13850;DHT22;6995;52.618;13.488;2022-11-15T15:07:20;11.10;99.90
13850;DHT22;6995;52.618;13.488;2022-11-15T15:09:46;11.00;99.90
13850;DHT22;6995;52.618;13.488;2022-11-15T15:12:16;10.90;99.90
13850;DHT22;6995;52.618;13.488;2022-11-15T15:14:42;10.80;99.90
13850;DHT22;6995;52.618;13.488;2022-11-15T15:17:10;10.70;99.90
13850;DHT22;6995;52.618;13.488;2022-11-15T15:19:36;10.60;99.90
13850;DHT22;6995;52.618;13.488;2022-11-15T15:22:02;10.50;99.90
13850;DHT22;6995;52.618;13.488;2022-11-15T15:24:27;10.40;99.90
13850;DHT22;6995;52.618;13.488;2022-11-15T15:26:53;10.40;99.90
13850;DHT22;6995;52.618;13.488;2022-11-15T15:29:19;10.40;99.90
13850;DHT22;6995;52.618;13.488;2022-11-15T15:31:44;10.30;99.90
13850;DHT22;6995;52.618;13.488;2022-11-15T15:34:10;10.20;99.90
13850;DHT22;6995;52.618;13.488;2022-11-15T15:36:35;10.10;99.90
13850;DHT22;6995;52.618;13.488;2022-11-15T15:39:01;10.00;99.90
13850;DHT22;6995;52.618;13.488;2022-11-15T15:41:27;10.00;1.00
13850;DHT22;6995;52.618;13.488;2022-11-15T15:43:53;9.90;99.90
13850;DHT22;6995;52.618;13.488;2022-11-15T15:46:20;9.90;1.40
13850;DHT22;6995;52.618;13.488;2022-11-15T15:48:46;9.80;1.00
13850;DHT22;6995;52.618;13.488;2022-11-15T15:51:12;9.70;1.00
13850;DHT22;6995;52.618;13.488;2022-11-15T15:53:38;9.60;1.00
13850;DHT22;6995;52.618;13.488;2022-11-15T15:56:04;9.50;1.00
13850;DHT22;6995;52.618;13.488;2022-11-15T15:58:33;9.40;1.00
13850;DHT22;6995;52.618;13.488;2022-11-15T16:00:59;9.30;1.00
13850;DHT22;6995;52.618;13.488;2022-11-15T16:03:24;9.30;1.00
13850;DHT22;6995;52.618;13.488;2022-11-15T16:05:50;9.20;1.00
13850;DHT22;6995;52.618;13.488;2022-11-15T16:08:21;9.20;1.00
13850;DHT22;6995;52.618;13.488;2022-11-15T16:10:48;9.00;1.00
13850;DHT22;6995;52.618;13.488;2022-11-15T16:13:13;9.00;1.00
13850;DHT22;6995;52.618;13.488;2022-11-15T16:15:39;8.90;1.00
13850;DHT22;6995;52.618;13.488;2022-11-15T16:18:05;8.80;1.00
13850;DHT22;6995;52.618;13.488;2022-11-15T16:23:13;8.70;1.00
13850;DHT22;6995;52.618;13.488;2022-11-15T16:25:49;8.60;1.00
13850;DHT22;6995;52.618;13.488;2022-11-15T16:30:46;8.50;1.00
13850;DHT22;6995;52.618;13.488;2022-11-15T16:33:11;8.40;1.00
13850;DHT22;6995;52.618;13.488;2022-11-15T16:35:37;8.40;1.00
13850;DHT22;6995;52.618;13.488;2022-11-15T16:38:03;8.30;1.00
13850;DHT22;6995;52.618;13.488;2022-11-15T16:40:30;8.30;1.00
13850;DHT22;6995;52.618;13.488;2022-11-15T16:42:57;8.20;1.00
13850;DHT22;6995;52.618;13.488;2022-11-15T16:45:25;8.10;1.00
13850;DHT22;6995;52.618;13.488;2022-11-15T16:47:53;8.10;1.00
13850;DHT22;6995;52.618;13.488;2022-11-15T16:50:25;8.00;1.00
13850;DHT22;6995;52.618;13.488;2022-11-15T16:52:55;8.00;1.00
13850;DHT22;6995;52.618;13.488;2022-11-15T16:55:23;7.90;1.00
13850;DHT22;6995;52.618;13.488;2022-11-15T16:57:49;7.90;1.00
13850;DHT22;6995;52.618;13.488;2022-11-15T17:00:17;7.90;1.00
13850;DHT22;6995;52.618;13.488;2022-11-15T17:02:44;7.80;1.00
13850;DHT22;6995;52.618;13.488;2022-11-15T17:05:10;7.80;1.00
13850;DHT22;6995;52.618;13.488;2022-11-15T17:07:37;7.70;1.00
13850;DHT22;6995;52.618;13.488;2022-11-15T17:10:03;7.70;1.00
13850;DHT22;6995;52.618;13.488;2022-11-15T17:12:29;7.70;1.00
13850;DHT22;6995;52.618;13.488;2022-11-15T17:14:55;7.70;1.00
13850;DHT22;6995;52.618;13.488;2022-11-15T17:17:22;7.60;1.00
13850;DHT22;6995;52.618;13.488;2022-11-15T17:19:47;7.70;1.00
13850;DHT22;6995;52.618;13.488;2022-11-15T17:22:13;7.60;1.00
13850;DHT22;6995;52.618;13.488;2022-11-15T17:24:39;7.60;1.00
13850;DHT22;6995;52.618;13.488;2022-11-15T17:27:04;7.60;1.00
13850;DHT22;6995;52.618;13.488;2022-11-15T17:29:30;7.60;1.00
13850;DHT22;6995;52.618;13.488;2022-11-15T17:31:56;7.50;1.00
13850;DHT22;6995;52.618;13.488;2022-11-15T17:34:21;7.50;1.00
13850;DHT22;6995;52.618;13.488;2022-11-15T17:36:48;7.50;1.00
13850;DHT22;6995;52.618;13.488;2022-11-15T17:39:14;7.40;1.00
13850;DHT22;6995;52.618;13.488;2022-11-15T17:41:39;7.40;1.00
13850;DHT22;6995;52.618;13.488;2022-11-15T17:44:05;7.40;1.00
13850;DHT22;6995;52.618;13.488;2022-11-15T17:46:31;7.30;1.00
13850;DHT22;6995;52.618;13.488;2022-11-15T17:48:58;7.30;1.00
13850;DHT22;6995;52.618;13.488;2022-11-15T17:51:24;7.20;1.00
13850;DHT22;6995;52.618;13.488;2022-11-15T17:53:50;7.10;1.00
13850;DHT22;6995;52.618;13.488;2022-11-15T17:56:19;7.10;1.00
13850;DHT22;6995;52.618;13.488;2022-11-15T17:58:53;7.00;1.00
13850;DHT22;6995;52.618;13.488;2022-11-15T18:01:30;7.00;1.00
13850;DHT22;6995;52.618;13.488;2022-11-15T18:03:57;7.00;1.00
13850;DHT22;6995;52.618;13.488;2022-11-15T18:06:25;6.90;1.00
13850;DHT22;6995;52.618;13.488;2022-11-15T18:08:53;6.90;1.00
13850;DHT22;6995;52.618;13.488;2022-11-15T18:13:54;6.90;1.00
13850;DHT22;6995;52.618;13.488;2022-11-15T18:16:23;6.90;1.00
13850;DHT22;6995;52.618;13.488;2022-11-15T18:18:53;6.90;1.00
13850;DHT22;6995;52.618;13.488;2022-11-15T18:21:32;6.90;1.00
13850;DHT22;6995;52.618;13.488;2022-11-15T18:24:12;6.90;1.00
13850;DHT22;6995;52.618;13.488;2022-11-15T18:26:38;6.90;1.00
13850;DHT22;6995;52.618;13.488;2022-11-15T18:29:04;6.90;1.00
13850;DHT22;6995;52.618;13.488;2022-11-15T18:31:30;7.00;1.00
13850;DHT22;6995;52.618;13.488;2022-11-15T18:33:58;7.00;1.00
13850;DHT22;6995;52.618;13.488;2022-11-15T18:36:27;7.00;1.00
13850;DHT22;6995;52.618;13.488;2022-11-15T18:39:01;7.00;1.00
13850;DHT22;6995;52.618;13.488;2022-11-15T18:41:27;7.10;1.00
13850;DHT22;6995;52.618;13.488;2022-11-15T18:43:59;7.10;1.00